Time;durP1;ratioP1;P1;durP2;ratioP2;P2;SDS_P1;SDS_P2;PMS_P1;PMS_P2;Temp;Humidity;BMP_temperature;BMP_pressure;BME280_temperature;BME280_humidity;BME280_pressure;Samples;Min_cycle;Max_cycle;Signal;HPM_P1;HPM_P2
2021/08/24 00:02:18;;;;;;;6.70;3.40;;;;;;;;;;5077051;28;20086;-86
2021/08/24 00:04:44;;;;;;;14.35;3.30;;;;;;;;;;5078075;28;20044;-86
2021/08/24 00:07:11;;;;;;;11.38;3.92;;;;;;;;;;5110563;28;20075;-86
2021/08/24 00:09:39;;;;;;;6.65;3.33;;;;;;;;;;5110799;28;20117;-86
2021/08/24 00:12:06;;;;;;;5.65;3.38;;;;;;;;;;5077935;28;20060;-86
2021/08/24 00:14:33;;;;;;;8.05;3.08;;;;;;;;;;5079289;28;20071;-86
2021/08/24 00:17:00;;;;;;;7.88;3.30;;;;;;;;;;5080377;28;20067;-86
2021/08/24 00:19:26;;;;;;;8.32;3.53;;;;;;;;;;5078727;28;20101;-85
2021/08/24 00:21:53;;;;;;;6.40;3.33;;;;;;;;;;5080412;28;20076;-85
2021/08/24 00:24:26;;;;;;;5.32;3.33;;;;;;;;;;5126536;28;20376;-85
2021/08/24 00:26:52;;;;;;;7.07;3.20;;;;;;;;;;5092631;28;20075;-86
2021/08/24 00:29:19;;;;;;;8.80;3.78;;;;;;;;;;5098010;28;20057;-85
2021/08/24 00:31:55;;;;;;;7.63;3.88;;;;;;;;;;5092050;28;20052;-85
2021/08/24 00:34:21;;;;;;;5.75;3.60;;;;;;;;;;5089711;28;20090;-85
2021/08/24 00:36:48;;;;;;;9.38;3.72;;;;;;;;;;5093589;28;20036;-85
2021/08/24 00:39:14;;;;;;;11.10;3.83;;;;;;;;;;5089466;28;20048;-85
2021/08/24 00:41:41;;;;;;;7.97;3.63;;;;;;;;;;5086570;28;20040;-83
2021/08/24 00:44:08;;;;;;;9.60;4.35;;;;;;;;;;5093510;28;20040;-85
2021/08/24 00:46:38;;;;;;;11.13;4.10;;;;;;;;;;5093232;28;20056;-84
2021/08/24 00:49:22;;;;;;;9.55;4.15;;;;;;;;;;5093674;28;20059;-84
2021/08/24 00:51:53;;;;;;;8.45;4.45;;;;;;;;;;5090876;28;20451;-85
2021/08/24 00:54:21;;;;;;;8.65;4.22;;;;;;;;;;5092941;28;20033;-84
2021/08/24 00:56:51;;;;;;;15.15;4.43;;;;;;;;;;5122647;28;20235;-84
2021/08/24 00:59:20;;;;;;;9.00;4.30;;;;;;;;;;5079485;28;20052;-84
2021/08/24 01:01:50;;;;;;;6.55;4.35;;;;;;;;;;5079950;28;20110;-84
2021/08/24 01:04:19;;;;;;;7.15;4.07;;;;;;;;;;5080848;28;20044;-85
2021/08/24 01:06:51;;;;;;;7.47;4.78;;;;;;;;;;5086982;28;20075;-86
2021/08/24 01:09:37;;;;;;;14.00;5.15;;;;;;;;;;5096643;28;20064;-84
2021/08/24 01:12:18;;;;;;;9.95;4.95;;;;;;;;;;5089871;28;20045;-85
2021/08/24 01:14:50;;;;;;;8.98;4.60;;;;;;;;;;5117479;28;20205;-85
2021/08/24 01:17:28;;;;;;;6.85;4.05;;;;;;;;;;5083101;28;20052;-84
2021/08/24 01:20:13;;;;;;;10.52;4.65;;;;;;;;;;5080931;28;20052;-85
2021/08/24 01:22:55;;;;;;;8.38;4.10;;;;;;;;;;5097460;28;20049;-84
2021/08/24 01:25:26;;;;;;;6.88;4.53;;;;;;;;;;5098211;28;20048;-85
2021/08/24 01:28:00;;;;;;;12.45;4.60;;;;;;;;;;5080469;28;20048;-85
2021/08/24 01:30:32;;;;;;;11.68;4.88;;;;;;;;;;5082947;28;20110;-85
2021/08/24 01:33:18;;;;;;;9.38;4.63;;;;;;;;;;5097128;28;20522;-85
2021/08/24 01:36:10;;;;;;;9.02;4.55;;;;;;;;;;5098232;28;20048;-85
2021/08/24 01:38:45;;;;;;;12.07;4.78;;;;;;;;;;5098356;28;20257;-85
2021/08/24 01:41:17;;;;;;;7.68;4.78;;;;;;;;;;5081726;28;20083;-85
2021/08/24 01:43:50;;;;;;;9.82;5.60;;;;;;;;;;5097221;28;20419;-85
2021/08/24 01:46:22;;;;;;;10.23;5.20;;;;;;;;;;5082563;28;20057;-85
2021/08/24 01:48:51;;;;;;;7.93;5.15;;;;;;;;;;5082545;28;20074;-85
2021/08/24 01:51:22;;;;;;;11.48;4.50;;;;;;;;;;5081459;28;20118;-85
2021/08/24 01:53:56;;;;;;;8.02;4.80;;;;;;;;;;5084867;28;20067;-85
2021/08/24 01:56:24;;;;;;;11.25;5.53;;;;;;;;;;5083214;28;20143;-84
2021/08/24 01:59:12;;;;;;;8.98;5.28;;;;;;;;;;5115251;28;20087;-85
2021/08/24 02:01:42;;;;;;;11.45;5.53;;;;;;;;;;5083146;28;20063;-85
2021/08/24 02:04:12;;;;;;;9.15;5.80;;;;;;;;;;5114097;28;20045;-85
2021/08/24 02:06:43;;;;;;;10.68;5.57;;;;;;;;;;5081649;28;20497;-85
2021/08/24 02:09:36;;;;;;;10.88;5.65;;;;;;;;;;5082057;28;20433;-85
2021/08/24 02:12:03;;;;;;;10.68;6.10;;;;;;;;;;5081364;28;20228;-85
2021/08/24 02:14:30;;;;;;;10.13;5.60;;;;;;;;;;5082936;28;20067;-85
2021/08/24 02:16:59;;;;;;;12.55;6.63;;;;;;;;;;5115214;28;20116;-85
2021/08/24 02:19:32;;;;;;;12.52;5.68;;;;;;;;;;5082548;28;20063;-85
2021/08/24 02:22:05;;;;;;;14.63;6.43;;;;;;;;;;5090465;28;20048;-84
2021/08/24 02:24:34;;;;;;;9.40;5.45;;;;;;;;;;5096623;28;20079;-84
2021/08/24 02:27:02;;;;;;;11.05;6.15;;;;;;;;;;5095722;28;20078;-85
2021/08/24 02:29:28;;;;;;;11.13;6.18;;;;;;;;;;5090980;28;20032;-85
2021/08/24 02:31:55;;;;;;;12.68;6.30;;;;;;;;;;5095929;28;20248;-85
2021/08/24 02:34:34;;;;;;;11.38;6.18;;;;;;;;;;5112165;28;20379;-85
2021/08/24 02:37:16;;;;;;;14.15;7.93;;;;;;;;;;5100325;28;20130;-85
2021/08/24 02:40:03;;;;;;;9.73;6.72;;;;;;;;;;5096536;28;20349;-83
2021/08/24 02:42:52;;;;;;;13.45;7.22;;;;;;;;;;5111538;28;20040;-85
2021/08/24 02:45:23;;;;;;;11.40;6.65;;;;;;;;;;5085090;28;20412;-85
2021/08/24 02:47:50;;;;;;;13.02;6.70;;;;;;;;;;5089201;28;20053;-85
2021/08/24 02:50:17;;;;;;;9.73;6.63;;;;;;;;;;5091385;28;20048;-85
2021/08/24 02:52:44;;;;;;;11.45;7.82;;;;;;;;;;5089351;28;20063;-85
2021/08/24 02:55:14;;;;;;;12.00;7.55;;;;;;;;;;5082675;28;20102;-85
2021/08/24 02:57:41;;;;;;;12.75;7.60;;;;;;;;;;5080001;28;20060;-84
2021/08/24 03:00:08;;;;;;;12.50;8.18;;;;;;;;;;5113465;28;20324;-87
2021/08/24 03:02:35;;;;;;;12.85;7.88;;;;;;;;;;5085453;28;20044;-85
2021/08/24 03:05:02;;;;;;;15.25;8.25;;;;;;;;;;5089660;28;20048;-84
2021/08/24 03:07:30;;;;;;;14.68;7.82;;;;;;;;;;5091643;28;20056;-85
2021/08/24 03:09:59;;;;;;;12.60;8.32;;;;;;;;;;5083784;28;20075;-85
2021/08/24 03:12:35;;;;;;;12.57;8.70;;;;;;;;;;5080495;28;20102;-84
2021/08/24 03:15:37;;;;;;;15.40;8.57;;;;;;;;;;5097986;28;20071;-84
2021/08/24 03:18:10;;;;;;;15.48;8.35;;;;;;;;;;5058851;28;20384;-84
2021/08/24 03:20:40;;;;;;;12.75;8.02;;;;;;;;;;5077870;28;20100;-84
2021/08/24 03:23:11;;;;;;;15.40;8.25;;;;;;;;;;5079913;28;20082;-84
2021/08/24 03:25:40;;;;;;;13.73;8.43;;;;;;;;;;5080574;28;20401;-85
2021/08/24 03:28:10;;;;;;;11.60;7.60;;;;;;;;;;5078767;28;20060;-84
2021/08/24 03:30:37;;;;;;;11.23;7.03;;;;;;;;;;5089309;28;20098;-84
2021/08/24 03:33:04;;;;;;;11.75;7.55;;;;;;;;;;5099508;28;20125;-84
2021/08/24 03:35:30;;;;;;;13.55;8.50;;;;;;;;;;5100135;28;20074;-84
2021/08/24 03:38:00;;;;;;;10.93;7.90;;;;;;;;;;5099120;28;20099;-84
2021/08/24 03:40:26;;;;;;;17.30;8.93;;;;;;;;;;5098437;28;20048;-85
2021/08/24 03:42:54;;;;;;;10.95;7.57;;;;;;;;;;5099299;28;20059;-84
2021/08/24 03:45:39;;;;;;;12.15;8.07;;;;;;;;;;5099510;28;20102;-84
2021/08/24 03:48:06;;;;;;;10.20;7.20;;;;;;;;;;5111425;28;20039;-84
2021/08/24 03:50:33;;;;;;;15.93;9.43;;;;;;;;;;5114654;28;20047;-84
2021/08/24 03:53:00;;;;;;;15.57;8.18;;;;;;;;;;5114141;28;20081;-84
2021/08/24 03:55:26;;;;;;;16.23;10.45;;;;;;;;;;5113269;28;20318;-84
2021/08/24 03:57:53;;;;;;;20.40;10.93;;;;;;;;;;5114865;28;20040;-84
2021/08/24 04:00:23;;;;;;;14.63;10.35;;;;;;;;;;5113730;28;20062;-83
2021/08/24 04:02:49;;;;;;;20.98;10.85;;;;;;;;;;5113108;28;20188;-85
2021/08/24 04:05:16;;;;;;;16.02;9.70;;;;;;;;;;5109825;28;20137;-84
2021/08/24 04:07:45;;;;;;;20.33;10.50;;;;;;;;;;5098366;28;20171;-84
2021/08/24 04:10:12;;;;;;;15.15;9.35;;;;;;;;;;5095343;28;20106;-84
2021/08/24 04:12:39;;;;;;;15.98;9.73;;;;;;;;;;5097135;28;20075;-85
2021/08/24 04:15:09;;;;;;;21.48;11.93;;;;;;;;;;5097299;28;20044;-84
2021/08/24 04:17:36;;;;;;;18.40;10.15;;;;;;;;;;5096481;28;20087;-85
2021/08/24 04:20:04;;;;;;;15.05;10.77;;;;;;;;;;5097503;28;20136;-84
2021/08/24 04:22:32;;;;;;;17.27;10.35;;;;;;;;;;5100103;28;20091;-84
2021/08/24 04:24:59;;;;;;;20.23;11.60;;;;;;;;;;5103391;28;20052;-84
2021/08/24 04:27:25;;;;;;;18.50;10.00;;;;;;;;;;5103002;28;20340;-83
2021/08/24 04:29:52;;;;;;;18.42;11.10;;;;;;;;;;5105575;28;20325;-84
2021/08/24 04:32:23;;;;;;;17.80;10.07;;;;;;;;;;5104034;28;20044;-84
2021/08/24 04:34:50;;;;;;;16.02;10.30;;;;;;;;;;5100462;28;20052;-84
2021/08/24 04:37:20;;;;;;;16.55;11.45;;;;;;;;;;5093633;28;20196;-83
2021/08/24 04:39:46;;;;;;;16.55;10.63;;;;;;;;;;5130920;27;20150;-83
2021/08/24 04:42:13;;;;;;;18.20;12.02;;;;;;;;;;5097241;28;20044;-84
2021/08/24 04:44:40;;;;;;;22.35;13.93;;;;;;;;;;5087468;28;20127;-84
2021/08/24 04:47:06;;;;;;;22.08;13.65;;;;;;;;;;5078934;28;20052;-83
2021/08/24 04:49:33;;;;;;;22.92;14.45;;;;;;;;;;5080276;28;20076;-84
2021/08/24 04:52:00;;;;;;;21.85;13.10;;;;;;;;;;5078980;28;20048;-84
2021/08/24 04:54:33;;;;;;;22.20;12.43;;;;;;;;;;5080272;28;20095;-86
2021/08/24 04:57:03;;;;;;;21.13;13.18;;;;;;;;;;5079054;28;20048;-85
2021/08/24 04:59:30;;;;;;;21.00;13.27;;;;;;;;;;5078720;28;20053;-84
2021/08/24 05:01:56;;;;;;;20.40;12.60;;;;;;;;;;5079680;28;20048;-85
2021/08/24 05:04:23;;;;;;;20.15;12.50;;;;;;;;;;5078004;28;20048;-84
2021/08/24 05:06:52;;;;;;;22.95;13.57;;;;;;;;;;5078534;28;20113;-84
2021/08/24 05:09:19;;;;;;;20.55;13.90;;;;;;;;;;5078919;28;20091;-85
2021/08/24 05:11:47;;;;;;;23.15;15.60;;;;;;;;;;5112865;28;20049;-84
2021/08/24 05:14:14;;;;;;;28.65;16.63;;;;;;;;;;5080235;28;20044;-83
2021/08/24 05:16:40;;;;;;;23.88;16.35;;;;;;;;;;5081933;28;20048;-86
2021/08/24 05:19:07;;;;;;;22.25;14.82;;;;;;;;;;5080458;28;20056;-85
2021/08/24 05:21:35;;;;;;;17.23;11.63;;;;;;;;;;5096101;28;20126;-85
2021/08/24 05:24:01;;;;;;;15.68;9.93;;;;;;;;;;5083855;28;20094;-86
2021/08/24 05:26:28;;;;;;;11.02;7.28;;;;;;;;;;5100855;28;20052;-84
2021/08/24 05:28:54;;;;;;;9.65;6.40;;;;;;;;;;5100075;28;20168;-85
2021/08/24 05:31:21;;;;;;;9.93;5.43;;;;;;;;;;5108638;28;20116;-86
2021/08/24 05:33:48;;;;;;;10.95;5.82;;;;;;;;;;5112544;28;20190;-86
2021/08/24 05:36:14;;;;;;;8.20;4.93;;;;;;;;;;5113624;28;20057;-86
2021/08/24 05:38:41;;;;;;;9.18;4.57;;;;;;;;;;5111516;28;20060;-85
2021/08/24 05:41:08;;;;;;;11.55;4.82;;;;;;;;;;5100488;28;20108;-87
2021/08/24 05:43:34;;;;;;;7.50;4.18;;;;;;;;;;5102309;28;20052;-85
2021/08/24 05:46:05;;;;;;;9.77;4.05;;;;;;;;;;5099726;28;20044;-85
2021/08/24 05:48:32;;;;;;;5.70;4.22;;;;;;;;;;5097965;28;20060;-85
2021/08/24 05:50:58;;;;;;;5.25;3.80;;;;;;;;;;5095447;28;20056;-85
2021/08/24 05:53:26;;;;;;;7.57;3.65;;;;;;;;;;5095236;28;20201;-84
2021/08/24 05:55:53;;;;;;;11.75;4.28;;;;;;;;;;5096985;28;20404;-84
2021/08/24 05:58:19;;;;;;;12.90;5.90;;;;;;;;;;5095222;28;20147;-85
2021/08/24 06:00:49;;;;;;;10.73;4.25;;;;;;;;;;5093318;28;20127;-84
2021/08/24 06:03:20;;;;;;;12.43;3.83;;;;;;;;;;5076409;28;20117;-84
2021/08/24 06:05:47;;;;;;;8.27;4.22;;;;;;;;;;5087820;28;20048;-84
2021/08/24 06:08:13;;;;;;;7.80;4.05;;;;;;;;;;5096708;28;20056;-85
2021/08/24 06:10:40;;;;;;;10.65;4.28;;;;;;;;;;5099936;28;20474;-85
2021/08/24 06:13:13;;;;;;;12.18;3.33;;;;;;;;;;5098557;28;20113;-86
2021/08/24 06:15:39;;;;;;;8.38;3.83;;;;;;;;;;5098160;28;20110;-85
2021/08/24 06:18:06;;;;;;;9.10;3.35;;;;;;;;;;5098211;28;20062;-85
2021/08/24 06:20:33;;;;;;;7.88;3.55;;;;;;;;;;5078168;28;20098;-85
2021/08/24 06:22:59;;;;;;;4.43;2.97;;;;;;;;;;5078645;28;20078;-84
2021/08/24 06:25:26;;;;;;;6.40;3.05;;;;;;;;;;5077620;28;20052;-86
2021/08/24 06:27:58;;;;;;;5.95;3.25;;;;;;;;;;5078748;28;20044;-86
2021/08/24 06:30:25;;;;;;;4.43;3.25;;;;;;;;;;5078124;28;20044;-84
2021/08/24 06:32:53;;;;;;;7.75;4.00;;;;;;;;;;5112376;28;20056;-84
2021/08/24 06:35:22;;;;;;;4.68;3.38;;;;;;;;;;5080083;28;20074;-84
2021/08/24 06:37:52;;;;;;;9.35;3.38;;;;;;;;;;5095869;28;20066;-84
2021/08/24 06:40:19;;;;;;;7.40;3.05;;;;;;;;;;5085456;28;20102;-85
2021/08/24 06:42:51;;;;;;;6.55;2.75;;;;;;;;;;5086563;28;20033;-85
2021/08/24 06:45:19;;;;;;;9.75;3.70;;;;;;;;;;5088483;28;20032;-85
2021/08/24 06:47:47;;;;;;;5.57;3.30;;;;;;;;;;5087702;28;20095;-85
2021/08/24 06:50:14;;;;;;;6.63;2.60;;;;;;;;;;5079367;28;20087;-85
2021/08/24 06:52:41;;;;;;;8.45;2.88;;;;;;;;;;5080325;28;20053;-85
2021/08/24 06:55:09;;;;;;;7.13;3.03;;;;;;;;;;5101830;28;20180;-85
2021/08/24 06:57:36;;;;;;;5.15;2.72;;;;;;;;;;5102460;28;20062;-85
2021/08/24 07:00:04;;;;;;;5.78;2.60;;;;;;;;;;5123647;28;20048;-85
2021/08/24 07:02:31;;;;;;;3.83;2.70;;;;;;;;;;5130642;28;20039;-85
2021/08/24 07:04:58;;;;;;;4.55;2.53;;;;;;;;;;5130447;28;20104;-86
2021/08/24 07:07:24;;;;;;;7.13;2.53;;;;;;;;;;5129999;28;20092;-86
2021/08/24 07:09:51;;;;;;;4.72;2.47;;;;;;;;;;5131757;28;20054;-86
2021/08/24 07:12:18;;;;;;;6.25;2.40;;;;;;;;;;5165249;27;20035;-84
2021/08/24 07:14:45;;;;;;;4.32;2.30;;;;;;;;;;5129706;28;20096;-85
2021/08/24 07:17:11;;;;;;;4.35;2.38;;;;;;;;;;5124356;28;20308;-86
2021/08/24 07:19:37;;;;;;;3.35;1.83;;;;;;;;;;5117098;28;20047;-85
2021/08/24 07:22:04;;;;;;;3.28;2.00;;;;;;;;;;5118009;28;20048;-85
2021/08/24 07:24:31;;;;;;;3.40;2.03;;;;;;;;;;5115674;28;20073;-85
2021/08/24 07:26:57;;;;;;;7.07;1.63;;;;;;;;;;5116488;28;20109;-86
2021/08/24 07:29:27;;;;;;;2.90;1.95;;;;;;;;;;5098219;28;20044;-86
2021/08/24 07:31:54;;;;;;;3.08;1.52;;;;;;;;;;5093482;28;20071;-86
2021/08/24 07:34:20;;;;;;;3.80;2.10;;;;;;;;;;5080128;28;20106;-86
2021/08/24 07:36:46;;;;;;;6.20;1.70;;;;;;;;;;5092282;28;20108;-86
2021/08/24 07:39:13;;;;;;;5.72;1.92;;;;;;;;;;5076326;28;20400;-86
2021/08/24 07:41:39;;;;;;;6.03;1.90;;;;;;;;;;5108426;28;20110;-86
2021/08/24 07:44:06;;;;;;;4.28;1.73;;;;;;;;;;5077103;28;20071;-85
2021/08/24 07:46:32;;;;;;;5.60;1.52;;;;;;;;;;5075947;28;20052;-85
2021/08/24 07:48:59;;;;;;;3.17;1.42;;;;;;;;;;5074201;28;20082;-85
2021/08/24 07:51:26;;;;;;;4.75;1.88;;;;;;;;;;5075821;28;20040;-84
2021/08/24 07:53:53;;;;;;;3.83;1.65;;;;;;;;;;5080459;28;20044;-85
2021/08/24 07:56:21;;;;;;;2.20;1.15;;;;;;;;;;5096022;28;20048;-86
2021/08/24 07:58:48;;;;;;;5.65;1.73;;;;;;;;;;5083706;28;20052;-85
2021/08/24 08:01:15;;;;;;;3.67;1.35;;;;;;;;;;5076235;28;20052;-86
2021/08/24 08:03:46;;;;;;;3.17;1.50;;;;;;;;;;5080843;28;20376;-84
2021/08/24 08:06:12;;;;;;;3.70;1.40;;;;;;;;;;5093459;28;20044;-85
2021/08/24 08:08:39;;;;;;;2.47;1.58;;;;;;;;;;5095867;28;20120;-86
2021/08/24 08:11:09;;;;;;;3.58;1.55;;;;;;;;;;5094596;28;20048;-85
2021/08/24 08:13:37;;;;;;;2.35;1.20;;;;;;;;;;5097172;28;20449;-85
2021/08/24 08:16:03;;;;;;;3.30;1.70;;;;;;;;;;5097043;28;20048;-86
2021/08/24 08:18:30;;;;;;;3.25;1.63;;;;;;;;;;5132944;27;20113;-86
2021/08/24 08:20:56;;;;;;;3.03;1.50;;;;;;;;;;5099704;28;20044;-87
2021/08/24 08:23:23;;;;;;;3.45;1.83;;;;;;;;;;5133105;27;20044;-86
2021/08/24 08:25:50;;;;;;;2.53;1.52;;;;;;;;;;5097690;28;20119;-86
2021/08/24 08:28:17;;;;;;;4.20;1.90;;;;;;;;;;5104589;28;20150;-86
2021/08/24 08:30:44;;;;;;;3.60;1.65;;;;;;;;;;5108070;28;20039;-87
2021/08/24 08:33:14;;;;;;;4.78;1.60;;;;;;;;;;5105633;28;20051;-86
2021/08/24 08:35:41;;;;;;;4.13;1.95;;;;;;;;;;5105540;28;20044;-85
2021/08/24 08:38:07;;;;;;;4.80;2.10;;;;;;;;;;5112294;28;20040;-84
2021/08/24 08:40:51;;;;;;;2.83;1.63;;;;;;;;;;5105647;28;20040;-85
2021/08/24 08:43:27;;;;;;;2.97;1.95;;;;;;;;;;5088531;28;20256;-85
2021/08/24 08:45:57;;;;;;;4.93;1.50;;;;;;;;;;5098566;28;20430;-85
2021/08/24 08:48:52;;;;;;;3.22;1.60;;;;;;;;;;5097131;28;20063;-86
2021/08/24 08:51:19;;;;;;;4.60;1.70;;;;;;;;;;5098838;28;20087;-87
2021/08/24 08:53:51;;;;;;;3.83;1.60;;;;;;;;;;5097841;28;20048;-87
2021/08/24 08:56:37;;;;;;;3.70;2.10;;;;;;;;;;5096096;28;20071;-86
2021/08/24 08:59:29;;;;;;;2.65;1.70;;;;;;;;;;5096858;28;20305;-86
2021/08/24 09:02:21;;;;;;;3.92;1.65;;;;;;;;;;5099230;28;20427;-86
2021/08/24 09:04:49;;;;;;;5.18;1.70;;;;;;;;;;5098215;28;20048;-86
2021/08/24 09:07:25;;;;;;;4.05;1.90;;;;;;;;;;5096557;28;20052;-85
2021/08/24 09:09:52;;;;;;;2.38;1.58;;;;;;;;;;5091214;28;20094;-84
2021/08/24 09:12:23;;;;;;;5.10;1.98;;;;;;;;;;5117503;27;20223;-84
2021/08/24 09:14:53;;;;;;;4.30;1.75;;;;;;;;;;5097816;28;20180;-84
2021/08/24 09:17:38;;;;;;;2.70;1.63;;;;;;;;;;5097897;28;20114;-84
2021/08/24 09:20:27;;;;;;;3.80;1.77;;;;;;;;;;5093546;28;20368;-84
2021/08/24 09:22:54;;;;;;;2.83;1.70;;;;;;;;;;5093431;28;20048;-83
2021/08/24 09:25:44;;;;;;;2.70;1.33;;;;;;;;;;5093599;28;20060;-85
2021/08/24 09:28:15;;;;;;;3.30;1.92;;;;;;;;;;5095520;28;20052;-84
2021/08/24 09:30:45;;;;;;;2.58;1.80;;;;;;;;;;5093761;28;20473;-84
2021/08/24 09:33:14;;;;;;;2.42;1.40;;;;;;;;;;5093678;28;20044;-83
2021/08/24 09:35:43;;;;;;;3.00;1.60;;;;;;;;;;5082985;28;20040;-84
2021/08/24 09:38:17;;;;;;;2.63;1.63;;;;;;;;;;5074853;28;20139;-84
2021/08/24 09:40:47;;;;;;;2.40;1.60;;;;;;;;;;5073438;28;20330;-83
2021/08/24 09:46:35;;;;;;;3.30;1.63;;;;;;;;;;5108091;28;20273;-83
2021/08/24 09:49:04;;;;;;;2.53;1.52;;;;;;;;;;5102459;28;20547;-84
2021/08/24 09:51:34;;;;;;;3.17;1.67;;;;;;;;;;5094037;28;20330;-84
2021/08/24 09:54:14;;;;;;;4.25;1.65;;;;;;;;;;5094520;28;20044;-84
2021/08/24 09:56:42;;;;;;;4.68;2.47;;;;;;;;;;5097427;28;20070;-84
2021/08/24 09:59:11;;;;;;;4.13;1.92;;;;;;;;;;5095592;28;20074;-85
2021/08/24 10:01:46;;;;;;;3.40;1.90;;;;;;;;;;5096531;28;20056;-84
2021/08/24 10:04:13;;;;;;;3.88;1.90;;;;;;;;;;5097797;28;20099;-84
2021/08/24 10:06:51;;;;;;;3.85;1.90;;;;;;;;;;5093961;28;20371;-84
2021/08/24 10:09:24;;;;;;;3.42;2.10;;;;;;;;;;5096932;28;20048;-84
2021/08/24 10:11:52;;;;;;;4.35;1.70;;;;;;;;;;5097575;28;20083;-84
2021/08/24 10:14:23;;;;;;;3.53;2.25;;;;;;;;;;5095251;28;20185;-84
2021/08/24 10:17:01;;;;;;;4.38;2.42;;;;;;;;;;5107203;28;20051;-84
2021/08/24 10:19:30;;;;;;;5.80;2.20;;;;;;;;;;5097356;28;20063;-86
2021/08/24 10:22:02;;;;;;;2.78;1.88;;;;;;;;;;5094879;28;20044;-86
2021/08/24 10:24:52;;;;;;;3.72;2.17;;;;;;;;;;5118420;28;20028;-84
2021/08/24 10:27:31;;;;;;;4.07;2.20;;;;;;;;;;5119370;28;20098;-86
2021/08/24 10:30:06;;;;;;;3.25;2.00;;;;;;;;;;5099097;28;20052;-85
2021/08/24 10:32:53;;;;;;;3.75;2.08;;;;;;;;;;5095516;28;20055;-85
2021/08/24 10:35:25;;;;;;;4.07;2.22;;;;;;;;;;5089183;28;20052;-86
2021/08/24 10:37:51;;;;;;;5.13;2.58;;;;;;;;;;5094172;28;20360;-85
2021/08/24 10:40:19;;;;;;;6.15;2.50;;;;;;;;;;5094639;28;20060;-84
2021/08/24 10:42:57;;;;;;;2.90;2.03;;;;;;;;;;5094002;28;20470;-84
2021/08/24 10:45:27;;;;;;;4.57;2.38;;;;;;;;;;5075842;28;20052;-84
2021/08/24 10:47:56;;;;;;;5.10;2.50;;;;;;;;;;5075893;28;20044;-85
2021/08/24 10:50:26;;;;;;;4.65;2.42;;;;;;;;;;5077561;28;20053;-84
2021/08/24 10:53:11;;;;;;;4.20;2.47;;;;;;;;;;5077938;28;20470;-85
2021/08/24 10:55:56;;;;;;;4.50;2.37;;;;;;;;;;5104085;28;20044;-85
2021/08/24 10:58:30;;;;;;;3.92;2.70;;;;;;;;;;5147447;27;20040;-84
2021/08/24 11:00:57;;;;;;;3.42;2.20;;;;;;;;;;5114153;28;20062;-85
2021/08/24 11:03:36;;;;;;;4.18;2.20;;;;;;;;;;5114311;28;20103;-85
2021/08/24 11:06:06;;;;;;;4.80;2.60;;;;;;;;;;5114664;28;20066;-85
2021/08/24 11:08:33;;;;;;;4.47;2.35;;;;;;;;;;5106793;28;20048;-85
2021/08/24 11:11:07;;;;;;;3.78;2.17;;;;;;;;;;5096326;28;20348;-85
2021/08/24 11:13:48;;;;;;;5.25;2.40;;;;;;;;;;5096280;28;20055;-85
2021/08/24 11:16:36;;;;;;;3.08;1.92;;;;;;;;;;5093221;28;20110;-83
2021/08/24 11:19:10;;;;;;;3.28;1.88;;;;;;;;;;5081631;28;20113;-83
2021/08/24 11:21:49;;;;;;;4.00;2.30;;;;;;;;;;5096977;28;20113;-84
2021/08/24 11:24:28;;;;;;;5.05;2.47;;;;;;;;;;5095005;28;20063;-84
2021/08/24 11:27:14;;;;;;;3.85;2.40;;;;;;;;;;5096147;28;20048;-85
2021/08/24 11:29:51;;;;;;;5.07;2.60;;;;;;;;;;5092342;28;20307;-84
2021/08/24 11:32:21;;;;;;;4.00;2.50;;;;;;;;;;5098376;28;20036;-84
2021/08/24 11:34:57;;;;;;;5.47;2.30;;;;;;;;;;5099511;28;20043;-84
2021/08/24 11:37:30;;;;;;;6.10;2.75;;;;;;;;;;5098876;28;20048;-86
2021/08/24 11:40:04;;;;;;;3.63;2.42;;;;;;;;;;5100331;28;20079;-86
2021/08/24 11:42:40;;;;;;;5.10;2.80;;;;;;;;;;5092806;28;20036;-87
2021/08/24 11:45:09;;;;;;;4.10;2.85;;;;;;;;;;5112535;28;20040;-88
2021/08/24 11:47:44;;;;;;;4.80;2.72;;;;;;;;;;5100865;28;20060;-85
2021/08/24 11:50:27;;;;;;;7.32;2.85;;;;;;;;;;5082090;28;20052;-87
2021/08/24 11:53:02;;;;;;;5.72;2.78;;;;;;;;;;5093528;28;20082;-87
2021/08/24 11:55:32;;;;;;;5.53;2.75;;;;;;;;;;5098536;28;20066;-86
2021/08/24 11:58:02;;;;;;;5.55;2.97;;;;;;;;;;5076933;28;20064;-87
2021/08/24 12:00:29;;;;;;;3.92;2.50;;;;;;;;;;5077114;28;20416;-85
2021/08/24 12:03:00;;;;;;;4.30;2.60;;;;;;;;;;5085811;28;20471;-86
2021/08/24 12:05:51;;;;;;;3.67;2.50;;;;;;;;;;5077347;28;20114;-86
2021/08/24 12:08:26;;;;;;;3.70;2.45;;;;;;;;;;5097422;28;20162;-86
2021/08/24 12:10:56;;;;;;;4.70;2.80;;;;;;;;;;5096773;28;20536;-87
2021/08/24 12:13:29;;;;;;;4.50;2.83;;;;;;;;;;5095771;28;20052;-86
2021/08/24 12:16:24;;;;;;;4.28;2.60;;;;;;;;;;5093498;28;20043;-86
2021/08/24 12:18:53;;;;;;;4.38;2.53;;;;;;;;;;5096931;28;20594;-87
2021/08/24 12:21:28;;;;;;;3.92;2.45;;;;;;;;;;5094160;28;20032;-86
2021/08/24 12:23:56;;;;;;;4.72;2.42;;;;;;;;;;5103231;28;20057;-87
2021/08/24 12:26:25;;;;;;;5.82;2.85;;;;;;;;;;5099402;28;20048;-85
2021/08/24 12:28:52;;;;;;;4.65;2.67;;;;;;;;;;5091273;28;20067;-87
2021/08/24 12:31:39;;;;;;;4.10;2.38;;;;;;;;;;5090377;28;20072;-86
2021/08/24 12:34:27;;;;;;;5.10;2.70;;;;;;;;;;5091687;28;20099;-87
2021/08/24 12:36:54;;;;;;;7.07;3.10;;;;;;;;;;5091774;28;20360;-87
2021/08/24 12:39:41;;;;;;;6.40;2.40;;;;;;;;;;5076329;28;20587;-86
2021/08/24 12:42:12;;;;;;;4.10;2.28;;;;;;;;;;5077418;28;20082;-86
2021/08/24 12:44:47;;;;;;;5.38;2.47;;;;;;;;;;5088949;28;20040;-86
2021/08/24 12:47:32;;;;;;;4.97;2.30;;;;;;;;;;5088938;28;20136;-86
2021/08/24 12:50:11;;;;;;;4.47;2.58;;;;;;;;;;5089958;28;20350;-86
2021/08/24 12:52:51;;;;;;;4.10;2.67;;;;;;;;;;5088426;28;20324;-86
2021/08/24 12:55:34;;;;;;;3.30;2.30;;;;;;;;;;5089974;28;20047;-86
2021/08/24 12:58:24;;;;;;;4.18;2.33;;;;;;;;;;5090259;28;20056;-86
2021/08/24 13:01:12;;;;;;;4.65;2.30;;;;;;;;;;5083887;28;20056;-86
2021/08/24 13:03:51;;;;;;;3.40;2.08;;;;;;;;;;5090608;28;20040;-86
2021/08/24 13:06:22;;;;;;;4.93;2.88;;;;;;;;;;5092954;28;20109;-86
2021/08/24 13:08:50;;;;;;;3.70;2.00;;;;;;;;;;5092331;28;20403;-86
2021/08/24 13:11:30;;;;;;;4.15;2.40;;;;;;;;;;5101717;28;20057;-87
2021/08/24 13:13:58;;;;;;;3.35;2.47;;;;;;;;;;5128891;27;20049;-87
2021/08/24 13:16:32;;;;;;;4.38;2.50;;;;;;;;;;5124722;28;20127;-87
2021/08/24 13:19:01;;;;;;;3.95;2.33;;;;;;;;;;5096000;28;20029;-85
2021/08/24 13:21:46;;;;;;;6.55;2.70;;;;;;;;;;5094749;28;20044;-85
2021/08/24 13:24:23;;;;;;;4.93;2.78;;;;;;;;;;5083055;28;20048;-85
2021/08/24 13:26:50;;;;;;;3.70;2.42;;;;;;;;;;5102289;28;20086;-84
2021/08/24 13:29:18;;;;;;;4.15;2.50;;;;;;;;;;5096242;28;20043;-84
2021/08/24 13:32:00;;;;;;;4.70;2.60;;;;;;;;;;5097395;28;20028;-84
2021/08/24 13:34:35;;;;;;;3.22;2.20;;;;;;;;;;5105082;28;20239;-85
2021/08/24 13:37:02;;;;;;;4.88;2.67;;;;;;;;;;5091561;28;20430;-85
2021/08/24 13:39:48;;;;;;;10.90;2.38;;;;;;;;;;5100071;28;20051;-85
2021/08/24 13:42:15;;;;;;;4.15;2.38;;;;;;;;;;5112578;28;20139;-85
2021/08/24 13:44:42;;;;;;;4.32;2.58;;;;;;;;;;5122494;28;20224;-85
2021/08/24 13:47:17;;;;;;;5.72;3.20;;;;;;;;;;5112971;28;20456;-86
2021/08/24 13:49:52;;;;;;;3.80;1.97;;;;;;;;;;5107999;28;20040;-85
2021/08/24 13:52:28;;;;;;;4.10;2.58;;;;;;;;;;5091883;28;20052;-85
2021/08/24 13:54:58;;;;;;;7.63;2.60;;;;;;;;;;5094520;28;20059;-84
2021/08/24 13:57:25;;;;;;;4.22;2.50;;;;;;;;;;5105841;28;20125;-85
2021/08/24 13:59:54;;;;;;;5.70;2.75;;;;;;;;;;5104944;28;20056;-84
2021/08/24 14:02:22;;;;;;;5.80;2.85;;;;;;;;;;5099676;28;20287;-85
2021/08/24 14:04:55;;;;;;;4.03;2.58;;;;;;;;;;5094485;28;20095;-85
2021/08/24 14:07:25;;;;;;;5.35;2.88;;;;;;;;;;5092918;28;20128;-85
2021/08/24 14:10:02;;;;;;;5.85;2.63;;;;;;;;;;5092769;28;20052;-86
2021/08/24 14:12:38;;;;;;;5.85;2.70;;;;;;;;;;5091543;28;20047;-85
2021/08/24 14:15:14;;;;;;;5.45;2.83;;;;;;;;;;5094443;28;20292;-84
2021/08/24 14:17:47;;;;;;;3.72;2.35;;;;;;;;;;5091328;28;20083;-85
2021/08/24 14:20:29;;;;;;;5.47;2.38;;;;;;;;;;5094526;28;20048;-85
2021/08/24 14:22:59;;;;;;;5.10;2.28;;;;;;;;;;5091499;28;20048;-86
2021/08/24 14:25:28;;;;;;;4.53;2.50;;;;;;;;;;5077457;28;20053;-86
2021/08/24 14:28:00;;;;;;;4.18;2.58;;;;;;;;;;5074359;28;20076;-84
2021/08/24 14:30:27;;;;;;;6.22;2.42;;;;;;;;;;5107669;28;20047;-84
2021/08/24 14:33:16;;;;;;;5.63;2.88;;;;;;;;;;5126316;27;20071;-85
2021/08/24 14:35:46;;;;;;;4.22;2.55;;;;;;;;;;5093639;28;20044;-85
2021/08/24 14:38:27;;;;;;;4.18;2.38;;;;;;;;;;5108810;28;20317;-85
2021/08/24 14:41:16;;;;;;;5.88;3.03;;;;;;;;;;5089299;28;20210;-85
2021/08/24 14:43:52;;;;;;;4.75;2.50;;;;;;;;;;5107575;28;20051;-85
2021/08/24 14:46:29;;;;;;;4.20;2.75;;;;;;;;;;5095988;28;20097;-85
2021/08/24 14:48:57;;;;;;;6.63;3.00;;;;;;;;;;5090672;28;20057;-85
2021/08/24 14:51:25;;;;;;;10.65;2.78;;;;;;;;;;5089636;28;20117;-86
2021/08/24 14:54:04;;;;;;;5.47;2.47;;;;;;;;;;5087856;28;20436;-85
2021/08/24 14:56:33;;;;;;;5.10;2.70;;;;;;;;;;5084730;28;20074;-86
2021/08/24 14:59:07;;;;;;;6.07;3.03;;;;;;;;;;5092295;28;20105;-86
2021/08/24 15:01:34;;;;;;;5.18;2.78;;;;;;;;;;5102709;28;20104;-85
2021/08/24 15:04:07;;;;;;;8.75;3.35;;;;;;;;;;5091056;28;20102;-84
2021/08/24 15:06:44;;;;;;;9.45;2.83;;;;;;;;;;5116908;27;20044;-85
2021/08/24 15:09:37;;;;;;;4.32;2.72;;;;;;;;;;5102347;28;20369;-85